createdAt,value
2017-07-12T00:00:20.901Z,73.5
2017-07-12T00:01:20.608Z,73.2
2017-07-12T00:02:20.222Z,73.3
2017-07-12T00:02:50.213Z,73.3
2017-07-12T00:03:20.839Z,74.4
2017-07-12T00:04:18.268Z,74
2017-07-12T00:05:17.963Z,74
2017-07-12T00:06:17.169Z,74
2017-07-12T00:08:15.932Z,74.3
2017-07-12T00:09:15.389Z,74.1
2017-07-12T00:10:14.222Z,74.4
2017-07-12T00:11:13.804Z,74.1
2017-07-12T00:12:12.874Z,74.1
2017-07-12T00:13:12.439Z,74.1
2017-07-12T00:14:11.634Z,74.7
2017-07-12T00:15:10.820Z,73.9
2017-07-12T00:16:10.132Z,73.8
2017-07-12T00:17:09.451Z,74
2017-07-12T00:18:09.373Z,74.2
2017-07-12T00:19:07.928Z,74.2
2017-07-12T00:20:07.377Z,74.1
2017-07-12T00:21:06.827Z,74.6
2017-07-12T00:22:06.147Z,74.7
2017-07-12T00:23:05.082Z,74.7
2017-07-12T00:24:04.778Z,74.7
2017-07-12T00:25:04.102Z,74.1
2017-07-12T00:26:03.996Z,74.3
2017-07-12T00:27:02.566Z,74.7
2017-07-12T00:28:03.165Z,75.2
2017-07-12T00:29:01.597Z,74.9
2017-07-12T00:30:00.912Z,74.9
2017-07-12T00:30:59.851Z,74.3
2017-07-12T00:31:59.306Z,75
2017-07-12T00:32:58.377Z,74.4
2017-07-12T00:33:57.698Z,74.3
2017-07-12T00:34:57.531Z,74.7
2017-07-12T00:35:56.352Z,74.2
2017-07-12T00:36:56.058Z,75
2017-07-12T00:37:55.378Z,75.5
2017-07-12T00:38:54.701Z,75.7
2017-07-12T00:39:53.890Z,75.8
2017-07-12T00:40:53.465Z,75.8
2017-07-12T00:41:52.402Z,75.8
2017-07-12T00:42:52.036Z,74.9
2017-07-12T00:43:50.989Z,75.7
2017-07-12T00:44:50.307Z,76.4
2017-07-12T00:45:49.639Z,75.8
2017-07-12T00:46:48.945Z,75.9
2017-07-12T00:47:48.385Z,75.8
2017-07-12T00:48:47.580Z,75.2
2017-07-12T00:49:47.048Z,76
2017-07-12T00:50:46.500Z,76
2017-07-12T00:51:45.575Z,76.3
2017-07-12T00:52:15.957Z,76.3
2017-07-12T00:52:46.213Z,76.6
2017-07-12T00:53:16.602Z,76.6
2017-07-12T00:53:46.733Z,76.3
2017-07-12T00:54:17.242Z,76.3
2017-07-12T00:54:47.875Z,76.5
2017-07-12T00:55:18.138Z,76.5
2017-07-12T00:55:48.896Z,76.5
2017-07-12T00:56:19.025Z,76.5
2017-07-12T00:56:49.835Z,76.3
2017-07-12T00:57:19.971Z,76.3
2017-07-12T00:58:40.674Z,76.6
2017-07-12T00:59:40.001Z,76.8
2017-07-12T01:00:39.324Z,76.8
2017-07-12T01:01:38.522Z,76.9
2017-07-12T01:02:37.855Z,76.6
2017-07-12T01:03:37.177Z,76.8
2017-07-12T01:04:36.744Z,76.5
2017-07-12T01:05:35.707Z,76.2
2017-07-12T01:06:34.914Z,77.1
2017-07-12T01:07:34.244Z,76.9
2017-07-12T01:08:33.563Z,76.3
2017-07-12T01:09:32.886Z,76.3
2017-07-12T01:10:32.339Z,76.3
2017-07-12T01:11:31.655Z,76.6
2017-07-12T01:12:30.980Z,76.2
2017-07-12T01:13:30.187Z,76.6
2017-07-12T01:14:29.634Z,76.9
2017-07-12T01:15:28.702Z,76.8
2017-07-12T01:16:27.910Z,76.8
2017-07-12T01:17:27.870Z,77.1
2017-07-12T01:18:26.682Z,77.1
2017-07-12T01:19:26.141Z,77.5
2017-07-12T01:20:25.136Z,77.8
2017-07-12T01:21:24.719Z,77.6
2017-07-12T01:22:24.047Z,77.8
2017-07-12T01:23:23.235Z,78.4
2017-07-12T01:24:22.432Z,78.3
2017-07-12T01:25:22.122Z,78.5
2017-07-12T01:25:52.381Z,78.5
2017-07-12T01:27:20.706Z,79
2017-07-12T01:28:19.510Z,78.8
2017-07-12T01:29:19.076Z,78.8
2017-07-12T01:30:18.279Z,78.4
2017-07-12T01:31:17.602Z,78
2017-07-12T01:32:17.052Z,78.5
2017-07-12T01:33:16.257Z,78.6
2017-07-12T01:34:15.590Z,78.6
2017-07-12T01:35:14.913Z,78.3
2017-07-12T01:36:14.287Z,78.1
2017-07-12T01:37:13.059Z,77.9
2017-07-12T01:38:12.262Z,78.1
2017-07-12T01:39:12.083Z,78.1
2017-07-12T01:40:11.404Z,77.8
2017-07-12T01:41:10.503Z,77.9
2017-07-12T01:42:09.813Z,77.8
2017-07-12T01:43:09.393Z,78.5
2017-07-12T01:44:08.606Z,78.8
2017-07-12T01:45:07.807Z,78.8
2017-07-12T01:46:07.388Z,79.1
2017-07-12T01:47:06.196Z,79
2017-07-12T01:48:05.385Z,78.7
2017-07-12T01:49:04.971Z,78.5
2017-07-12T01:50:04.171Z,78.8
2017-07-12T01:51:03.242Z,78.8
2017-07-12T01:51:33.746Z,78.8
2017-07-12T01:52:04.271Z,78.8
2017-07-12T01:53:01.838Z,78.4
2017-07-12T01:54:01.037Z,78.2
2017-07-12T01:55:00.620Z,78.4
2017-07-12T01:55:59.815Z,78.3
2017-07-12T01:56:59.384Z,78.3
2017-07-12T01:57:58.583Z,78
2017-07-12T01:58:57.661Z,78.3
2017-07-12T01:59:57.119Z,78
2017-07-12T02:00:56.305Z,77.9
2017-07-12T02:01:26.940Z,77.9
2017-07-12T02:01:57.067Z,77.8
2017-07-12T02:02:27.445Z,77.8
2017-07-12T02:02:57.961Z,77.6
2017-07-12T02:03:54.514Z,77.9
2017-07-12T02:04:53.459Z,78.1
2017-07-12T02:05:53.028Z,78.2
2017-07-12T02:06:51.983Z,78.2
2017-07-12T02:07:51.366Z,77.9
2017-07-12T02:08:50.566Z,77.9
2017-07-12T02:09:49.764Z,77.9
2017-07-12T02:10:49.461Z,77.6
2017-07-12T02:11:48.154Z,77.7
2017-07-12T02:12:47.731Z,78
2017-07-12T02:13:46.923Z,77.4
2017-07-12T02:14:46.122Z,78
2017-07-12T02:15:45.713Z,77.6
2017-07-12T02:17:44.414Z,78.1
2017-07-12T02:18:43.870Z,77.6
2017-07-12T02:19:42.823Z,77.3
2017-07-12T02:20:42.266Z,77.5
2017-07-12T02:21:12.780Z,77.5
2017-07-12T02:21:43.472Z,77.4
2017-07-12T02:22:40.779Z,77.8
2017-07-12T02:24:39.447Z,77.4
2017-07-12T02:25:38.280Z,77.7
2017-07-12T02:26:38.109Z,77.7
2017-07-12T02:27:37.054Z,77.7
2017-07-12T02:28:36.373Z,78.2
2017-07-12T02:29:36.398Z,78.4
2017-07-12T02:30:34.972Z,77.8
2017-07-12T02:31:34.420Z,78.2
2017-07-12T02:32:33.619Z,78
2017-07-12T02:33:32.812Z,78
2017-07-12T02:34:32.086Z,77.7
2017-07-12T02:35:31.278Z,77.3
2017-07-12T02:36:30.471Z,77.1
2017-07-12T02:37:29.787Z,77.6
2017-07-12T02:38:29.361Z,77.5
2017-07-12T02:39:28.556Z,77.5
2017-07-12T02:40:27.629Z,77.8
2017-07-12T02:41:27.317Z,77.8
2017-07-12T02:41:57.833Z,77.8
2017-07-12T02:42:28.468Z,77.5
2017-07-12T02:42:59.422Z,77.5
2017-07-12T02:43:29.816Z,77.8
2017-07-12T02:44:00.321Z,77.8
2017-07-12T02:45:24.313Z,77.5
2017-07-12T02:46:23.525Z,77.4
2017-07-12T02:47:22.979Z,77.3
2017-07-12T02:48:22.427Z,77.2
2017-07-12T02:49:21.627Z,77.4
2017-07-12T02:50:28.120Z,77.4
2017-07-12T02:51:19.892Z,77.9
2017-07-12T02:52:19.207Z,77.9
2017-07-12T02:53:18.531Z,78.1
2017-07-12T02:54:17.846Z,78.6
2017-07-12T02:56:16.435Z,78.1
2017-07-12T02:57:16.028Z,78
2017-07-12T02:58:14.967Z,77.9
2017-07-12T02:59:14.979Z,78.6
2017-07-12T03:00:13.796Z,78.5
2017-07-12T03:01:12.734Z,78.8
2017-07-12T03:01:43.228Z,78.8
2017-07-12T03:03:11.423Z,78.5
2017-07-12T03:04:10.610Z,78.1
2017-07-12T03:06:09.315Z,79
2017-07-12T03:07:08.506Z,78.5
2017-07-12T03:08:07.684Z,77.8
2017-07-12T03:09:07.119Z,78.1
2017-07-12T03:10:06.557Z,78.1
2017-07-12T03:11:05.488Z,78
2017-07-12T03:12:05.329Z,77.5
2017-07-12T03:12:35.710Z,77.5
2017-07-12T03:13:05.964Z,77.5
2017-07-12T03:13:35.958Z,77.5
2017-07-12T03:14:06.587Z,77.1
2017-07-12T03:14:37.220Z,77.1
2017-07-12T03:16:02.211Z,76.7
2017-07-12T03:17:01.770Z,76.9
2017-07-12T03:18:00.632Z,76.9
2017-07-12T03:18:59.952Z,76.6
2017-07-12T03:19:59.139Z,76.6
2017-07-12T03:20:58.332Z,76.7
2017-07-12T03:21:57.516Z,76.6
2017-07-12T03:22:57.393Z,77.3
2017-07-12T03:23:56.456Z,77.4
2017-07-12T03:24:55.784Z,77.3
2017-07-12T03:25:54.852Z,77
2017-07-12T03:26:54.559Z,77.4
2017-07-12T03:27:53.250Z,77.3
2017-07-12T03:28:52.700Z,77
2017-07-12T03:29:52.144Z,76.9
2017-07-12T03:30:51.070Z,77
2017-07-12T03:31:50.506Z,76.9
2017-07-12T03:32:49.936Z,76.9
2017-07-12T03:33:49.133Z,77.3
2017-07-12T03:34:48.438Z,77.7
2017-07-12T03:35:47.651Z,77.4
2017-07-12T03:36:47.657Z,77.4
2017-07-12T03:37:46.147Z,77.4
2017-07-12T03:38:45.392Z,77.6
2017-07-12T03:39:45.082Z,77.4
2017-07-12T03:40:44.043Z,77.5
2017-07-12T03:42:42.745Z,77.6
2017-07-12T03:43:41.923Z,77.2
2017-07-12T03:44:41.493Z,77
2017-07-12T03:45:40.168Z,77
2017-07-12T03:46:40.108Z,76.8
2017-07-12T03:47:39.307Z,77
2017-07-12T03:48:38.489Z,77
2017-07-12T03:49:38.360Z,77.1
2017-07-12T03:50:08.105Z,77.1
2017-07-12T03:50:38.997Z,76.7
2017-07-12T03:51:08.993Z,76.7
2017-07-12T03:51:39.364Z,77.1
2017-07-12T03:52:35.035Z,77.1
2017-07-12T03:53:34.848Z,77.1
2017-07-12T03:54:34.030Z,77.1
2017-07-12T03:55:33.596Z,77.1
2017-07-12T03:56:32.282Z,76.7
2017-07-12T03:57:32.225Z,76.8
2017-07-12T03:58:30.903Z,77.1
2017-07-12T03:59:30.722Z,76.9
2017-07-12T04:00:29.413Z,76.6
2017-07-12T04:01:29.103Z,76.5
2017-07-12T04:02:28.419Z,76.3
2017-07-12T04:03:27.356Z,76.2
2017-07-12T04:04:27.060Z,76.2
2017-07-12T04:05:25.745Z,76.2
2017-07-12T04:06:25.443Z,76.5
2017-07-12T04:07:24.641Z,75.8
2017-07-12T04:08:24.083Z,76.1
2017-07-12T04:09:23.145Z,75.7
2017-07-12T04:09:53.512Z,75.7
2017-07-12T04:11:21.961Z,75.4
2017-07-12T04:12:21.154Z,75.4
2017-07-12T04:13:20.236Z,75.4
2017-07-12T04:14:19.422Z,75.6
2017-07-12T04:15:18.614Z,75.5
2017-07-12T04:16:18.182Z,76.1
2017-07-12T04:17:17.632Z,75.7
2017-07-12T04:18:17.075Z,75.4
2017-07-12T04:19:16.014Z,75.5
2017-07-12T04:20:15.076Z,75.7
2017-07-12T04:21:14.897Z,75.7
2017-07-12T04:21:45.149Z,75.7
2017-07-12T04:22:15.395Z,75.6
2017-07-12T04:22:45.764Z,75.6
2017-07-12T04:23:16.133Z,76.3
2017-07-12T04:23:46.627Z,76.3
2017-07-12T04:25:11.865Z,75.7
2017-07-12T04:26:11.068Z,75.7
2017-07-12T04:27:10.376Z,75.4
2017-07-12T04:28:09.317Z,75.5
2017-07-12T04:29:09.004Z,75.6
2017-07-12T04:30:07.824Z,75.6
2017-07-12T04:31:07.380Z,76.4
2017-07-12T04:32:06.826Z,76.2
2017-07-12T04:33:06.263Z,75.7
2017-07-12T04:34:05.342Z,75.9
2017-07-12T04:35:04.655Z,75.8
2017-07-12T04:36:03.718Z,75.8
2017-07-12T04:37:03.144Z,75.2
2017-07-12T04:38:02.457Z,74.4
2017-07-12T04:39:01.784Z,73.8
2017-07-12T04:40:00.708Z,73.1
2017-07-12T04:41:00.010Z,72.3
2017-07-12T04:41:59.820Z,72.5
2017-07-12T04:42:58.765Z,71.9
2017-07-12T04:43:57.854Z,71.3
2017-07-12T04:44:57.546Z,70.4
2017-07-12T04:45:56.730Z,69.5
2017-07-12T04:46:55.789Z,68.9
2017-07-12T04:47:55.232Z,68.9
2017-07-12T04:48:54.548Z,68.5
2017-07-12T04:49:53.603Z,67.7
2017-07-12T04:50:53.898Z,67.6
2017-07-12T04:51:52.329Z,67.8
2017-07-12T04:52:51.654Z,66.9
2017-07-12T04:53:51.096Z,67.1
2017-07-12T04:54:50.282Z,66.6
2017-07-12T04:55:49.591Z,66
2017-07-12T04:56:48.411Z,64.5
2017-07-12T04:57:47.983Z,63.5
2017-07-12T04:58:46.974Z,63.7
2017-07-12T04:59:46.164Z,63
2017-07-12T05:00:45.990Z,62
2017-07-12T05:01:16.371Z,62
2017-07-12T05:01:46.627Z,62
2017-07-12T05:02:16.753Z,62
2017-07-12T05:02:47.382Z,62
2017-07-12T05:03:17.568Z,62
2017-07-12T05:05:42.203Z,62.3
2017-07-12T05:06:41.528Z,63.3
2017-07-12T05:07:40.980Z,63.9
2017-07-12T05:08:40.046Z,63.6
2017-07-12T05:09:39.630Z,63.6
2017-07-12T05:10:38.573Z,64.5
2017-07-12T05:11:38.019Z,64.5
2017-07-12T05:12:37.195Z,64.5
2017-07-12T05:13:36.777Z,64.7
2017-07-12T05:14:36.400Z,65.2
2017-07-12T05:15:35.223Z,65
2017-07-12T05:16:34.403Z,65.5
2017-07-12T05:17:33.455Z,64.8
2017-07-12T05:18:33.034Z,64.9
2017-07-12T05:19:32.215Z,65.1
2017-07-12T05:20:31.544Z,65.3
2017-07-12T05:21:30.724Z,66
2017-07-12T05:22:29.907Z,66
2017-07-12T05:23:29.093Z,66
2017-07-12T05:24:28.780Z,66
2017-07-12T05:25:28.232Z,65.5
2017-07-12T05:26:27.170Z,65.9
2017-07-12T05:28:26.116Z,66.2
2017-07-12T05:29:25.060Z,66.5
2017-07-12T05:30:24.375Z,66.5
2017-07-12T05:31:23.566Z,67.1
2017-07-12T05:32:23.385Z,66.7
2017-07-12T05:34:21.711Z,66.7
2017-07-12T05:35:21.270Z,66.8
2017-07-12T05:36:20.339Z,67
2017-07-12T05:37:19.904Z,66.8
2017-07-12T05:39:18.231Z,67.1
2017-07-12T05:40:17.559Z,67.1
2017-07-12T05:41:16.885Z,67.1
2017-07-12T05:42:15.820Z,67.9
2017-07-12T05:43:15.654Z,67.8
2017-07-12T05:44:14.857Z,68
2017-07-12T05:45:14.307Z,67.6
2017-07-12T05:46:13.388Z,67.9
2017-07-12T05:47:12.721Z,68.1
2017-07-12T05:48:11.786Z,69.3
2017-07-12T05:50:10.872Z,69
2017-07-12T05:51:10.744Z,68.8
2017-07-12T05:52:08.927Z,68.4
2017-07-12T05:53:08.484Z,68.7
2017-07-12T05:54:07.551Z,68.7
2017-07-12T05:55:07.118Z,68.9
2017-07-12T05:56:06.555Z,68.8
2017-07-12T05:57:05.622Z,68.5
2017-07-12T05:58:05.064Z,68.5
2017-07-12T05:59:04.246Z,68.5
2017-07-12T06:00:03.682Z,68.1
2017-07-12T06:01:02.752Z,68.5
2017-07-12T06:02:02.319Z,68.5
2017-07-12T06:03:01.496Z,68.6
2017-07-12T06:04:00.940Z,68.1
2017-07-12T06:05:01.085Z,68.1
2017-07-12T06:05:59.399Z,67.8
2017-07-12T06:06:58.456Z,68.2
2017-07-12T06:07:58.265Z,68
2017-07-12T06:08:28.521Z,68
2017-07-12T06:08:59.272Z,67.7
2017-07-12T06:09:29.635Z,67.7
2017-07-12T06:10:00.142Z,67.7
2017-07-12T06:10:30.507Z,67.7
2017-07-12T06:11:55.371Z,67.5
2017-07-12T06:12:55.069Z,67.7
2017-07-12T06:13:54.151Z,67.4
2017-07-12T06:14:53.801Z,67.4
2017-07-12T06:15:52.614Z,67.4
2017-07-12T06:16:52.054Z,67.1
2017-07-12T06:17:51.371Z,67.2
2017-07-12T06:18:50.823Z,66.2
2017-07-12T06:19:49.765Z,67.1
2017-07-12T06:20:49.082Z,67
2017-07-12T06:21:48.513Z,67.2
2017-07-12T06:23:47.090Z,66.9
2017-07-12T06:24:46.386Z,67.2
2017-07-12T06:25:46.197Z,67
2017-07-12T06:26:45.506Z,67.1
2017-07-12T06:27:44.450Z,66.2
2017-07-12T06:28:43.894Z,66.1
2017-07-12T06:29:43.213Z,65.6
2017-07-12T06:30:42.659Z,64.7
2017-07-12T06:31:41.979Z,64.6
2017-07-12T06:33:40.553Z,64.6
2017-07-12T06:34:39.876Z,63.6
2017-07-12T06:35:39.438Z,63.7
2017-07-12T06:36:38.761Z,63.6
2017-07-12T06:37:37.571Z,62.4
2017-07-12T06:38:37.071Z,62.5
2017-07-12T06:39:36.254Z,61.8
2017-07-12T06:40:35.840Z,62.1
2017-07-12T06:41:34.900Z,61.8
2017-07-12T06:42:34.587Z,62.6
2017-07-12T06:43:33.782Z,61.3
2017-07-12T06:44:33.095Z,61.2
2017-07-12T06:45:32.609Z,60.9
2017-07-12T06:46:32.054Z,61.7
2017-07-12T06:47:30.737Z,61.1
2017-07-12T06:48:30.184Z,61.2
2017-07-12T06:49:29.875Z,61.5
2017-07-12T06:49:59.992Z,61.5
2017-07-12T06:51:28.375Z,62.2
2017-07-12T06:52:27.813Z,61.7
2017-07-12T06:53:27.387Z,62.4
2017-07-12T06:54:26.439Z,61.9
2017-07-12T06:55:25.878Z,61.5
2017-07-12T06:56:25.184Z,61.9
2017-07-12T06:57:24.630Z,61.6
2017-07-12T06:58:23.953Z,61.9
2017-07-12T06:59:23.533Z,61
2017-07-12T07:00:22.463Z,61.9
2017-07-12T07:01:22.026Z,61.9
2017-07-12T07:02:21.339Z,61.6
2017-07-12T07:02:51.977Z,61.6
2017-07-12T07:03:22.351Z,61.7
2017-07-12T07:04:19.912Z,62
2017-07-12T07:05:19.243Z,61.8
2017-07-12T07:06:18.571Z,61.9
2017-07-12T07:07:18.000Z,61.7
2017-07-12T07:08:17.437Z,61.7
2017-07-12T07:09:16.899Z,61.7
2017-07-12T07:10:15.990Z,61.9
2017-07-12T07:11:15.427Z,61.8
2017-07-12T07:12:14.873Z,61
2017-07-12T07:13:14.321Z,61.4
2017-07-12T07:14:13.268Z,61
2017-07-12T07:15:12.703Z,60
2017-07-12T07:16:11.942Z,58.8
2017-07-12T07:17:11.382Z,57.8
2017-07-12T07:18:10.442Z,57.8
2017-07-12T07:19:10.517Z,58.1
2017-07-12T07:20:09.336Z,57.2
2017-07-12T07:21:08.657Z,56.8
2017-07-12T07:22:08.225Z,56.3
2017-07-12T07:22:38.589Z,56.3
2017-07-12T07:23:09.083Z,56
2017-07-12T07:24:06.774Z,56.2
2017-07-12T07:25:06.215Z,56.5
2017-07-12T07:26:05.784Z,56.5
2017-07-12T07:27:04.596Z,56.5
2017-07-12T07:28:04.625Z,56.5
2017-07-12T07:29:03.566Z,57.3
2017-07-12T07:30:02.875Z,57.3
2017-07-12T07:31:02.561Z,56.2
2017-07-12T07:32:01.615Z,57.3
2017-07-12T07:33:00.863Z,56
2017-07-12T07:33:59.917Z,57.8
2017-07-12T07:34:59.616Z,57.1
2017-07-12T07:35:58.918Z,56.9
2017-07-12T07:36:58.107Z,57.7
2017-07-12T07:37:57.793Z,57.1
2017-07-12T07:38:57.229Z,56.6
2017-07-12T07:39:56.561Z,57.2
2017-07-12T07:40:56.005Z,57
2017-07-12T07:41:55.441Z,56.9
2017-07-12T07:42:54.897Z,57.3
2017-07-12T07:43:54.595Z,57.3
2017-07-12T07:44:53.271Z,57.3
2017-07-12T07:45:52.960Z,58
2017-07-12T07:46:51.766Z,57.8
2017-07-12T07:47:51.580Z,58.3
2017-07-12T07:48:50.761Z,57.5
2017-07-12T07:49:50.068Z,57.9
2017-07-12T07:50:49.640Z,58.1
2017-07-12T07:51:49.095Z,58.6
2017-07-12T07:52:48.038Z,57.2
2017-07-12T07:53:47.500Z,57
2017-07-12T07:54:46.942Z,57.7
2017-07-12T07:55:46.254Z,56.3
2017-07-12T07:56:45.688Z,57.5
2017-07-12T07:57:44.746Z,56.2
2017-07-12T07:58:15.135Z,56.2
2017-07-12T07:58:45.381Z,56.1
2017-07-12T07:59:16.015Z,56.1
2017-07-12T07:59:46.513Z,56
2017-07-12T08:00:17.016Z,56
2017-07-12T08:01:42.251Z,56.4
2017-07-12T08:02:42.200Z,56.6
2017-07-12T08:03:40.880Z,56.8
2017-07-12T08:04:40.463Z,57.2
2017-07-12T08:05:39.908Z,55.7
2017-07-12T08:06:39.100Z,55.4
2017-07-12T08:07:38.923Z,55.9
2017-07-12T08:08:38.371Z,56.9
2017-07-12T08:09:37.552Z,56.7
2017-07-12T08:10:36.754Z,56.9
2017-07-12T08:11:36.078Z,56.3
2017-07-12T08:12:35.668Z,55.9
2017-07-12T08:13:34.722Z,55.6
2017-07-12T08:14:34.426Z,55.9
2017-07-12T08:15:33.735Z,57.1
2017-07-12T08:16:33.050Z,57.3
2017-07-12T08:17:32.360Z,57.6
2017-07-12T08:18:02.232Z,57.6
2017-07-12T08:18:32.652Z,57.9
2017-07-12T08:19:03.299Z,57.9
2017-07-12T08:20:30.794Z,57.7
2017-07-12T08:21:29.597Z,58.7
2017-07-12T08:22:29.161Z,57.9
2017-07-12T08:23:28.416Z,58.3
2017-07-12T08:24:28.350Z,58.7
2017-07-12T08:25:27.285Z,58.2
2017-07-12T08:26:26.867Z,58.2
2017-07-12T08:27:26.431Z,58.7
2017-07-12T08:28:25.373Z,59
2017-07-12T08:28:55.762Z,59
2017-07-12T08:29:25.890Z,59.6
2017-07-12T08:29:56.398Z,59.6
2017-07-12T08:30:26.516Z,59
2017-07-12T08:30:57.144Z,59
2017-07-12T08:31:27.401Z,59.6
2017-07-12T08:31:57.654Z,59.6
2017-07-12T08:33:22.647Z,58.9
2017-07-12T08:34:21.963Z,59.7
2017-07-12T08:35:21.336Z,59
2017-07-12T08:36:20.508Z,58.6
2017-07-12T08:37:19.699Z,58.6
2017-07-12T08:38:19.381Z,58.5
2017-07-12T08:39:18.948Z,58.4
2017-07-12T08:40:17.758Z,58.9
2017-07-12T08:41:17.198Z,58.8
2017-07-12T08:42:16.886Z,58.9
2017-07-12T08:43:16.205Z,58
2017-07-12T08:44:15.522Z,58.7
2017-07-12T08:45:14.968Z,58.5
2017-07-12T08:46:14.165Z,59.5
2017-07-12T08:47:13.596Z,59.5
2017-07-12T08:48:13.050Z,59.3
2017-07-12T08:49:12.484Z,59.3
2017-07-12T08:50:11.928Z,59.5
2017-07-12T08:51:10.996Z,58.7
2017-07-12T08:53:09.707Z,57.3
2017-07-12T08:54:09.266Z,57
2017-07-12T08:55:08.711Z,57
2017-07-12T08:56:08.283Z,57.3
2017-07-12T08:57:07.352Z,56.9
2017-07-12T08:58:06.793Z,56.9
2017-07-12T08:59:05.976Z,57.7
2017-07-12T09:00:05.911Z,57.2
2017-07-12T09:01:05.365Z,57.7
2017-07-12T09:02:04.058Z,58.1
2017-07-12T09:03:03.609Z,58
2017-07-12T09:04:02.779Z,57.6
2017-07-12T09:05:03.092Z,56.6
2017-07-12T09:07:01.694Z,56.6
2017-07-12T09:08:00.746Z,56.5
2017-07-12T09:09:00.059Z,57
2017-07-12T09:09:59.510Z,56.2
2017-07-12T09:10:59.142Z,56.3
2017-07-12T09:11:58.718Z,56.2
2017-07-12T09:12:28.706Z,56.2
2017-07-12T09:12:59.344Z,56.2
2017-07-12T09:13:57.025Z,56.2
2017-07-12T09:14:56.582Z,56.2
2017-07-12T09:15:56.019Z,57.2
2017-07-12T09:16:55.214Z,56.5
2017-07-12T09:17:54.661Z,57
2017-07-12T09:18:53.980Z,56.1
2017-07-12T09:19:53.592Z,56.5
2017-07-12T09:20:52.909Z,56.1
2017-07-12T09:21:52.354Z,56.4
2017-07-12T09:22:51.184Z,56.1
2017-07-12T09:23:50.758Z,55.2
2017-07-12T09:33:45.167Z,55.2
2017-07-12T09:34:44.101Z,54.6
2017-07-12T09:35:43.406Z,54.2
2017-07-12T09:36:43.093Z,55.2
2017-07-12T09:37:42.453Z,55.1
2017-07-12T09:38:42.085Z,55.9
2017-07-12T09:39:41.417Z,55.5
2017-07-12T09:40:40.741Z,55.8
2017-07-12T09:41:40.189Z,56.7
2017-07-12T09:42:39.267Z,55.9
2017-07-12T09:43:38.584Z,56.3
2017-07-12T09:45:37.669Z,55.6
2017-07-12T09:46:37.223Z,55.8
2017-07-12T09:47:36.294Z,56.9
2017-07-12T09:48:35.992Z,56.9
2017-07-12T09:49:35.295Z,57.7
2017-07-12T09:50:34.612Z,56.3
2017-07-12T09:51:33.941Z,56.6
2017-07-12T09:52:33.502Z,57.3
2017-07-12T09:53:32.933Z,57.2
2017-07-12T09:54:31.860Z,58.3
2017-07-12T09:55:31.182Z,57.9
2017-07-12T09:56:30.623Z,57.2
2017-07-12T09:57:29.950Z,57.6
2017-07-12T09:58:29.512Z,57.6
2017-07-12T09:59:29.208Z,57.9
2017-07-12T10:00:28.776Z,57.8
2017-07-12T10:01:27.849Z,58
2017-07-12T10:02:27.414Z,59.4
2017-07-12T10:03:26.612Z,59.2
2017-07-12T10:04:26.309Z,58.8
2017-07-12T10:05:25.252Z,59.1
2017-07-12T10:06:24.451Z,59.1
2017-07-12T10:07:24.388Z,60
2017-07-12T10:08:23.331Z,59.8
2017-07-12T10:09:23.022Z,60.3
2017-07-12T10:10:22.214Z,59.6
2017-07-12T10:11:21.784Z,59.7
2017-07-12T10:12:20.964Z,59.8
2017-07-12T10:13:20.650Z,58.9
2017-07-12T10:14:19.467Z,59
2017-07-12T10:15:19.279Z,59.5
2017-07-12T10:16:18.841Z,59.2
2017-07-12T10:17:17.662Z,59.4
2017-07-12T10:17:48.409Z,59.4
2017-07-12T10:18:18.794Z,58.6
2017-07-12T10:18:49.239Z,58.6
2017-07-12T10:19:19.225Z,58.6
2017-07-12T10:19:49.472Z,58.6
2017-07-12T10:20:20.102Z,59.4
2017-07-12T10:20:50.343Z,59.4
2017-07-12T10:21:20.962Z,58.9
2017-07-12T10:21:50.954Z,58.9
2017-07-12T10:22:21.213Z,58.9
2017-07-12T10:22:51.964Z,58.9
2017-07-12T10:24:13.792Z,62.4
2017-07-12T10:25:13.341Z,65.2
2017-07-12T10:26:12.276Z,65.5
2017-07-12T10:27:11.717Z,65.3
2017-07-12T10:28:11.159Z,65.4
2017-07-12T10:29:10.602Z,67.8
2017-07-12T10:30:10.618Z,69.2
2017-07-12T10:31:09.425Z,68.2
2017-07-12T10:32:08.741Z,68.6
2017-07-12T10:33:07.803Z,68.9
2017-07-12T10:34:06.986Z,69
2017-07-12T10:35:07.056Z,68.1
2017-07-12T10:36:06.255Z,68.7
2017-07-12T10:37:05.454Z,70.3
2017-07-12T10:39:04.031Z,70.7
2017-07-12T10:40:03.601Z,71.8
2017-07-12T10:41:02.797Z,72.4
2017-07-12T10:42:02.107Z,72.4
2017-07-12T10:43:01.802Z,72.4
2017-07-12T10:44:01.119Z,72.1
2017-07-12T10:45:59.944Z,72.6
2017-07-12T10:46:58.940Z,72.2
2017-07-12T10:47:58.400Z,73.3
2017-07-12T10:48:57.852Z,73.2
2017-07-12T10:49:57.432Z,73
2017-07-12T10:50:56.878Z,72.9
2017-07-12T10:51:27.002Z,72.9
2017-07-12T10:51:57.015Z,72.6
2017-07-12T10:52:27.756Z,72.6
2017-07-12T10:52:58.249Z,74.3
2017-07-12T10:53:28.501Z,74.3
2017-07-12T10:53:59.130Z,74.4
2017-07-12T10:54:53.971Z,73
2017-07-12T10:55:53.465Z,74.5
2017-07-12T10:56:52.654Z,73.5
2017-07-12T10:57:52.231Z,73.9
2017-07-12T10:58:51.662Z,74.6
2017-07-12T10:59:51.104Z,74.6
2017-07-12T11:00:50.421Z,74.6
2017-07-12T11:01:49.476Z,73.8
2017-07-12T11:02:49.046Z,73.2
2017-07-12T11:03:48.357Z,74.1
2017-07-12T11:04:48.055Z,74.3
2017-07-12T11:05:47.002Z,75.9
2017-07-12T11:06:46.445Z,75.7
2017-07-12T11:07:45.515Z,75.9
2017-07-12T11:08:45.229Z,75.4
2017-07-12T11:09:44.551Z,76
2017-07-12T11:10:43.869Z,76
2017-07-12T11:11:43.053Z,77
2017-07-12T11:12:42.746Z,77.8
2017-07-12T11:13:42.307Z,78.5
2017-07-12T11:14:41.767Z,79.9
2017-07-12T11:15:40.955Z,80.6
2017-07-12T11:16:40.389Z,79.5
2017-07-12T11:17:39.339Z,79.5
2017-07-12T11:18:39.038Z,78.8
2017-07-12T11:19:38.596Z,80
2017-07-12T11:20:37.776Z,79.9
2017-07-12T11:21:36.965Z,79.9
2017-07-12T11:22:36.085Z,80.1
2017-07-12T11:23:35.773Z,80.8
2017-07-12T11:24:34.959Z,81.4
2017-07-12T11:25:34.652Z,81.5
2017-07-12T11:26:33.351Z,82
2017-07-12T11:27:33.023Z,81.9
2017-07-12T11:28:03.400Z,81.9
2017-07-12T11:28:33.902Z,82.3
2017-07-12T11:29:04.779Z,82.3
2017-07-12T11:29:34.902Z,82.3
2017-07-12T11:30:05.522Z,82.3
2017-07-12T11:30:36.275Z,83.5
2017-07-12T11:31:30.541Z,83.6
2017-07-12T11:32:29.966Z,83.7
2017-07-12T11:33:29.026Z,83.6
2017-07-12T11:34:28.342Z,83.9
2017-07-12T11:35:28.031Z,83.9
2017-07-12T11:36:27.619Z,83.9
2017-07-12T11:37:26.568Z,84.9
2017-07-12T11:38:25.879Z,85.5
2017-07-12T11:39:25.073Z,85.9
2017-07-12T11:40:24.635Z,85.6
2017-07-12T11:41:23.692Z,86.3
2017-07-12T11:43:22.896Z,85.9
2017-07-12T11:44:22.093Z,86.4
2017-07-12T11:45:21.415Z,86.1
2017-07-12T11:46:20.473Z,86.4
2017-07-12T11:47:20.159Z,86.3
2017-07-12T11:47:50.661Z,86.3
2017-07-12T11:48:20.911Z,86.5
2017-07-12T11:49:18.582Z,87
2017-07-12T11:50:18.170Z,87.2
2017-07-12T11:51:17.605Z,87.4
2017-07-12T11:52:16.548Z,87.5
2017-07-12T11:53:15.726Z,87.5
2017-07-12T11:54:15.292Z,88
2017-07-12T11:55:14.607Z,88.4
2017-07-12T11:56:14.050Z,88.3
2017-07-12T11:57:13.364Z,88.4
2017-07-12T11:58:12.802Z,88.3
2017-07-12T11:59:11.997Z,88.3
2017-07-12T12:00:11.170Z,88.2
2017-07-12T12:01:10.609Z,87.8
2017-07-12T12:02:10.055Z,88.2
2017-07-12T12:03:09.505Z,88
2017-07-12T12:04:08.706Z,88.6
2017-07-12T12:05:08.161Z,88.8
2017-07-12T12:06:07.093Z,89
2017-07-12T12:07:06.669Z,89.2
2017-07-12T12:08:05.860Z,89.2
2017-07-12T12:09:05.041Z,89.3
2017-07-12T12:09:35.405Z,89.3
2017-07-12T12:10:05.916Z,89.5
2017-07-12T12:10:36.541Z,89.5
2017-07-12T12:12:03.154Z,89.2
2017-07-12T12:13:02.967Z,88.9
2017-07-12T12:14:02.020Z,89
2017-07-12T12:15:01.195Z,89
2017-07-12T12:16:00.713Z,89
2017-07-12T12:17:00.021Z,89.2
2017-07-12T12:17:59.205Z,89.5
2017-07-12T12:18:58.551Z,89.9
2017-07-12T12:19:58.104Z,89.9
2017-07-12T12:20:57.291Z,90
2017-07-12T12:21:56.468Z,89.7
2017-07-12T12:22:26.962Z,89.7
2017-07-12T12:22:57.452Z,89.8
2017-07-12T12:23:55.000Z,90
2017-07-12T12:24:54.440Z,90.1
2017-07-12T12:25:54.003Z,90.2
2017-07-12T12:26:53.202Z,90.5
2017-07-12T12:27:52.541Z,90.5
2017-07-12T12:28:51.998Z,90.5
2017-07-12T12:29:22.115Z,90.5
2017-07-12T12:29:52.496Z,90.5
2017-07-12T12:30:50.555Z,90.6
2017-07-12T12:31:50.129Z,90.8
2017-07-12T12:32:48.695Z,90.9
2017-07-12T12:33:48.264Z,90.7
2017-07-12T12:34:47.582Z,90.5
2017-07-12T12:35:46.898Z,90.2
2017-07-12T12:36:46.336Z,90.1
2017-07-12T12:37:45.674Z,89.8
2017-07-12T12:38:44.992Z,90.1
2017-07-12T12:39:44.071Z,90.3
2017-07-12T12:40:14.718Z,90.3
2017-07-12T12:40:44.836Z,90.4
2017-07-12T12:41:15.095Z,90.4
2017-07-12T12:41:45.712Z,90.6
2017-07-12T12:42:15.953Z,90.6
2017-07-12T12:42:46.440Z,90.5
2017-07-12T12:43:17.197Z,90.5
2017-07-12T12:44:41.309Z,90.4
2017-07-12T12:45:39.989Z,90.1
2017-07-12T12:46:39.418Z,90.1
2017-07-12T12:47:38.974Z,90.1
2017-07-12T12:48:38.285Z,89.8
2017-07-12T12:49:37.612Z,90.1
2017-07-12T12:50:36.796Z,89.7
2017-07-12T12:51:36.110Z,89.9
2017-07-12T12:52:35.541Z,89.9
2017-07-12T12:53:34.861Z,90.2
2017-07-12T12:54:33.795Z,90.1